1928 NOT_NAMED (1928206N16130)


IBTrACS version v04r00. Visit IBTrACS website for data access.
Please direct all questions to the IBTrACS Q and A forum

Storm track - Intensity - Wind Radii - Intensity Data - Source Data - All data

Summary Information

Storm ID 1928206N16130
Start Jul 23 22Z
End Jul 25 22Z
ATCF IDs
Track status Best track data.

Storm track plot

Map of storm track

Intensity plots

No Intensity information for this storm


Radial wind information

No radial wind information for this storm


Position and Intensity Table

BASIN ISO_TIME_________ NATURE LAT LON
degrees north degrees east
WP 1928-07-23 22:00:00 NR 16.30 129.80
WP 1928-07-24 00:00:00 NR 16.37 129.40
WP 03:00:00 NR 16.46 128.82
WP 06:00:00 NR 16.56 128.26
WP 09:00:00 NR 16.67 127.76
WP 10:00:00 NR 16.70 127.60
WP 12:00:00 NR 16.77 127.31
WP 15:00:00 NR 16.88 126.93
WP 18:00:00 NR 16.98 126.59
WP 21:00:00 NR 17.07 126.29
WP 22:00:00 NR 17.10 126.20
WP 1928-07-25 00:00:00 NR 17.15 126.02
WP 03:00:00 NR 17.21 125.76
WP 06:00:00 NR 17.25 125.53
WP 09:00:00 NR 17.29 125.29
WP 10:00:00 NR 17.30 125.20
WP 12:00:00 NR 17.32 125.02
WP 15:00:00 NR 17.35 124.73
WP 18:00:00 NR 17.37 124.42
WP 21:00:00 NR 17.39 124.11
WP 22:00:00 NR 17.40 124.00

Source Information

Agency Information
USA
TOKYO
CMA
HKO
NEWDELHI
REUNION
BOM
NADI
WELLINGTON
DS824
TD9636 cons_worldwide_trop_cyclone_18710101-19891231-003:Line=8044
TD9635
NEUMANN
MLC

All available IBTrACS Data

SEASON BASIN SUBBASIN ISO_TIME_________ NATURE LAT LON DIST2LAND LANDFALL IFLAG USA SSHS TD9636 LAT TD9636 LON TD9636 STAGE STORM SPEED STORM DIR
Year degrees north degrees east km km 1 degrees north degrees east kts degrees
1928 WP MM 1928-07-23 22:00:00 NR 16.30 129.80 639 605 __________O___ -1 16.30 129.80 7 12 280
1928 WP MM 1928-07-24 00:00:00 NR 16.37 129.40 605 554 __________P___ -1 16.37 129.40 7 11 280
1928 WP MM 03:00:00 NR 16.46 128.82 554 516 __________P___ -1 16.46 128.82 7 11 280
1928 WP MM 06:00:00 NR 16.56 128.26 516 473 __________P___ -1 16.56 128.26 7 10 281
1928 WP MM 09:00:00 NR 16.67 127.76 480 464 __________P___ -1 16.67 127.76 7 10 282
1928 WP MM 10:00:00 NR 16.70 127.60 464 449 __________O___ -1 16.70 127.60 7 9 284
1928 WP MM 12:00:00 NR 16.77 127.31 449 426 __________P___ -1 16.77 127.31 7 8 286
1928 WP MM 15:00:00 NR 16.88 126.93 427 414 __________P___ -1 16.88 126.93 7 7 287
1928 WP MM 18:00:00 NR 16.98 126.59 416 404 __________P___ -1 16.98 126.59 7 6 288
1928 WP MM 21:00:00 NR 17.07 126.29 404 393 __________P___ -1 17.07 126.29 7 6 287
1928 WP MM 22:00:00 NR 17.10 126.20 393 372 __________O___ -1 17.10 126.20 7 6 286
1928 WP MM 1928-07-25 00:00:00 NR 17.15 126.02 372 351 __________P___ -1 17.15 126.02 7 5 284
1928 WP MM 03:00:00 NR 17.21 125.76 351 319 __________P___ -1 17.21 125.76 7 5 283
1928 WP MM 06:00:00 NR 17.25 125.53 320 299 __________P___ -1 17.25 125.53 7 5 280
1928 WP MM 09:00:00 NR 17.29 125.29 299 288 __________P___ -1 17.29 125.29 7 5 279
1928 WP MM 10:00:00 NR 17.30 125.20 288 267 __________O___ -1 17.30 125.20 7 5 277
1928 WP MM 12:00:00 NR 17.32 125.02 267 236 __________P___ -1 17.32 125.02 7 5 276
1928 WP MM 15:00:00 NR 17.35 124.73 236 206 __________P___ -1 17.35 124.73 7 6 275
1928 WP MM 18:00:00 NR 17.37 124.42 206 175 __________P___ -1 17.37 124.42 7 6 274
1928 WP MM 21:00:00 NR 17.39 124.11 175 165 __________P___ -1 17.39 124.11 7 6 274
1928 WP MM 22:00:00 NR 17.40 124.00 165 __________O___ -1 17.40 124.00 7 6 274